Time;durP1;ratioP1;P1;durP2;ratioP2;P2;SDS_P1;SDS_P2;PMS_P1;PMS_P2;Temp;Humidity;BMP_temperature;BMP_pressure;BME280_temperature;BME280_humidity;BME280_pressure;Samples;Min_cycle;Max_cycle;Signal;HPM_P1;HPM_P2
2023/06/02 00:04:12;;;;;;;6.85;3.38;;;22.00;60.80;;;;;;10097147;28;20105;-66
2023/06/02 00:09:05;;;;;;;4.68;3.22;;;22.00;60.60;;;;;;10102883;28;20017;-67
2023/06/02 00:13:56;;;;;;;7.15;3.78;;;21.90;60.60;;;;;;10098762;28;20506;-66
2023/06/02 00:18:47;;;;;;;5.25;3.50;;;21.70;61.00;;;;;;10077640;28;20041;-65
2023/06/02 00:23:38;;;;;;;9.25;4.03;;;21.60;61.30;;;;;;10082685;28;20028;-62
2023/06/02 00:28:29;;;;;;;5.75;3.30;;;21.50;61.30;;;;;;10102024;28;20025;-62
2023/06/02 00:33:20;;;;;;;5.43;3.22;;;21.40;61.40;;;;;;10100450;28;20491;-64
2023/06/02 00:38:10;;;;;;;8.63;3.40;;;21.40;61.30;;;;;;10092238;28;20039;-61
2023/06/02 00:43:02;;;;;;;9.43;3.70;;;21.30;61.60;;;;;;10094284;28;20511;-66
2023/06/02 00:47:52;;;;;;;7.32;3.60;;;21.10;62.20;;;;;;10088693;28;20029;-61
2023/06/02 00:52:46;;;;;;;5.10;2.92;;;21.00;62.50;;;;;;10082589;28;20112;-65
2023/06/02 00:57:40;;;;;;;7.18;3.40;;;20.90;62.90;;;;;;10067016;28;20032;-63
2023/06/02 01:02:31;;;;;;;10.85;4.65;;;20.70;63.30;;;;;;10093968;28;20049;-65
2023/06/02 01:07:25;;;;;;;4.63;2.85;;;20.60;63.90;;;;;;10093318;28;20033;-61
2023/06/02 01:12:16;;;;;;;5.25;3.25;;;20.50;63.90;;;;;;10102025;28;20061;-67
2023/06/02 01:17:06;;;;;;;4.15;3.28;;;20.40;64.40;;;;;;10086919;28;20037;-61
2023/06/02 01:22:01;;;;;;;6.68;3.40;;;20.20;65.10;;;;;;10100582;28;20032;-65
2023/06/02 01:26:52;;;;;;;6.57;4.00;;;20.20;65.20;;;;;;10100397;28;20514;-63
2023/06/02 01:31:47;;;;;;;4.97;3.47;;;20.10;65.60;;;;;;10080129;28;20036;-62
2023/06/02 01:36:39;;;;;;;5.07;3.72;;;20.00;66.40;;;;;;10099077;28;20490;-71
2023/06/02 01:41:31;;;;;;;5.57;3.22;;;19.90;66.40;;;;;;10093489;28;20514;-61
2023/06/02 01:46:26;;;;;;;6.20;3.35;;;19.70;66.90;;;;;;10074649;28;20025;-69
2023/06/02 01:51:17;;;;;;;5.55;3.30;;;19.60;67.60;;;;;;10099039;28;20572;-67
2023/06/02 01:56:08;;;;;;;7.03;4.07;;;19.60;67.50;;;;;;10068236;28;20037;-61
2023/06/02 02:00:58;;;;;;;6.00;3.78;;;19.50;67.70;;;;;;10079958;28;20515;-63
2023/06/02 02:05:49;;;;;;;10.23;4.35;;;19.50;67.80;;;;;;10041476;28;20192;-66
2023/06/02 02:10:40;;;;;;;10.10;3.85;;;19.30;68.50;;;;;;10093611;28;20021;-63
2023/06/02 02:15:31;;;;;;;6.20;4.35;;;19.20;68.90;;;;;;10091970;28;20045;-63
2023/06/02 02:20:22;;;;;;;8.63;3.85;;;19.10;69.20;;;;;;10091813;28;20045;-64
2023/06/02 02:25:13;;;;;;;8.68;3.53;;;18.90;70.20;;;;;;10078616;28;20026;-64
2023/06/02 02:30:05;;;;;;;6.20;3.50;;;18.80;70.60;;;;;;10098233;28;20039;-62
2023/06/02 02:34:56;;;;;;;6.07;3.47;;;18.90;70.00;;;;;;10100994;28;20053;-60
2023/06/02 02:39:47;;;;;;;7.95;3.65;;;18.80;70.20;;;;;;10072907;28;20091;-61
2023/06/02 02:44:38;;;;;;;7.57;3.53;;;18.60;70.80;;;;;;10099148;28;20047;-66
2023/06/02 02:49:29;;;;;;;7.80;4.80;;;18.50;71.20;;;;;;10092477;28;20025;-64
2023/06/02 02:54:19;;;;;;;5.45;3.60;;;18.50;71.10;;;;;;10107733;28;20498;-64
2023/06/02 02:59:12;;;;;;;7.28;3.83;;;18.40;71.30;;;;;;10099744;28;20029;-61
2023/06/02 03:04:03;;;;;;;4.85;3.20;;;18.40;71.30;;;;;;10087754;28;20403;-63
2023/06/02 03:08:54;;;;;;;6.30;3.65;;;18.20;72.60;;;;;;10093587;28;20028;-67
2023/06/02 03:13:45;;;;;;;6.60;3.97;;;18.00;72.80;;;;;;10091927;28;20596;-67
2023/06/02 03:18:36;;;;;;;6.70;3.53;;;17.80;73.10;;;;;;10117018;28;20084;-72
2023/06/02 03:23:28;;;;;;;7.97;4.22;;;17.70;73.90;;;;;;10076638;28;20407;-74
2023/06/02 03:28:19;;;;;;;8.55;4.10;;;17.60;74.30;;;;;;10072035;28;20092;-72
2023/06/02 03:33:10;;;;;;;5.30;3.50;;;17.40;75.10;;;;;;10085517;28;20033;-69
2023/06/02 03:38:00;;;;;;;6.00;3.45;;;17.20;75.40;;;;;;10064499;28;20117;-75
2023/06/02 03:42:51;;;;;;;6.13;3.45;;;17.20;75.10;;;;;;10103575;28;20115;-72
2023/06/02 03:47:42;;;;;;;5.60;3.00;;;17.10;75.80;;;;;;10104283;28;20029;-64
2023/06/02 03:52:32;;;;;;;5.25;3.30;;;17.10;75.90;;;;;;10103836;28;20029;-63
2023/06/02 03:57:23;;;;;;;6.93;3.38;;;17.00;76.40;;;;;;10108635;28;20060;-63
2023/06/02 04:02:14;;;;;;;6.07;3.10;;;16.90;76.50;;;;;;10106090;28;20030;-64
2023/06/02 04:07:05;;;;;;;5.63;3.22;;;16.80;76.60;;;;;;10077170;28;20025;-61
2023/06/02 04:11:56;;;;;;;7.35;3.15;;;16.80;76.90;;;;;;10102871;28;20027;-65
2023/06/02 04:16:47;;;;;;;4.82;3.03;;;16.80;76.80;;;;;;10073283;28;20044;-63
2023/06/02 04:21:37;;;;;;;8.30;4.00;;;16.70;77.40;;;;;;10094496;28;20127;-62
2023/06/02 04:26:28;;;;;;;5.43;3.22;;;16.60;77.80;;;;;;10101384;28;20419;-60
2023/06/02 04:31:26;;;;;;;6.50;3.13;;;16.70;78.20;;;;;;10098653;28;20041;-65
2023/06/02 04:36:17;;;;;;;5.35;3.63;;;16.50;78.50;;;;;;10085957;28;20023;-62
2023/06/02 04:41:08;;;;;;;4.45;2.63;;;16.50;79.10;;;;;;10117846;28;20590;-74
2023/06/02 04:46:01;;;;;;;4.55;3.00;;;16.50;78.90;;;;;;10102261;28;20028;-69
2023/06/02 04:50:52;;;;;;;6.00;2.88;;;16.30;79.50;;;;;;10070599;28;20042;-64
2023/06/02 04:55:45;;;;;;;6.75;3.28;;;16.40;79.80;;;;;;10083483;28;20025;-73
2023/06/02 05:00:36;;;;;;;6.40;2.63;;;16.40;80.20;;;;;;10097669;28;20336;-63
2023/06/02 05:05:28;;;;;;;6.18;3.50;;;16.50;79.70;;;;;;10076950;28;20104;-63
2023/06/02 05:10:19;;;;;;;5.57;3.38;;;16.30;80.10;;;;;;10096675;28;20028;-60
2023/06/02 05:15:10;;;;;;;6.30;3.35;;;16.30;80.40;;;;;;10092401;28;20042;-61
2023/06/02 05:20:00;;;;;;;6.25;3.47;;;16.20;81.10;;;;;;10096256;28;20541;-63
2023/06/02 05:24:51;;;;;;;5.38;3.85;;;16.20;81.00;;;;;;10096239;28;20036;-69
2023/06/02 05:29:42;;;;;;;4.40;2.92;;;16.20;81.70;;;;;;10075589;28;20063;-66
2023/06/02 05:34:32;;;;;;;6.40;3.55;;;16.20;81.60;;;;;;10102124;28;20040;-69
2023/06/02 05:39:23;;;;;;;7.88;3.28;;;16.20;81.40;;;;;;10100533;28;20037;-77
2023/06/02 05:44:13;;;;;;;5.57;3.13;;;16.40;81.10;;;;;;10100161;28;20017;-60
2023/06/02 05:49:04;;;;;;;4.90;2.97;;;16.40;80.90;;;;;;10095252;28;20032;-61
2023/06/02 05:53:55;;;;;;;5.68;3.22;;;16.50;80.80;;;;;;10075670;28;20021;-64
2023/06/02 05:58:46;;;;;;;5.68;3.55;;;16.60;80.80;;;;;;10082110;28;20043;-61
2023/06/02 06:03:37;;;;;;;3.60;2.95;;;16.50;80.80;;;;;;10089389;28;20031;-60
2023/06/02 06:08:28;;;;;;;5.50;3.13;;;16.50;80.90;;;;;;10097078;28;20120;-62
2023/06/02 06:13:18;;;;;;;5.22;3.30;;;16.50;81.00;;;;;;10093645;28;20284;-63
2023/06/02 06:18:09;;;;;;;7.40;2.85;;;16.60;80.70;;;;;;10106973;28;20039;-72
2023/06/02 06:23:00;;;;;;;4.32;2.70;;;16.70;80.50;;;;;;10094279;28;20057;-66
2023/06/02 06:27:51;;;;;;;5.00;2.72;;;16.60;80.80;;;;;;10106051;28;20387;-67
2023/06/02 06:32:41;;;;;;;4.95;2.80;;;16.60;80.90;;;;;;10102468;28;20099;-72
2023/06/02 06:37:32;;;;;;;5.07;3.15;;;16.50;80.80;;;;;;10095121;28;20300;-61
2023/06/02 06:42:23;;;;;;;3.40;2.67;;;16.70;80.20;;;;;;10105913;28;20092;-70
2023/06/02 06:47:14;;;;;;;8.05;3.63;;;17.00;79.70;;;;;;10104340;28;20398;-72
2023/06/02 06:52:05;;;;;;;4.90;3.05;;;17.00;79.80;;;;;;10073527;28;20067;-65
2023/06/02 06:56:55;;;;;;;5.80;2.75;;;17.10;79.50;;;;;;10105219;28;20029;-62
2023/06/02 07:01:46;;;;;;;9.90;3.40;;;17.20;79.40;;;;;;10105602;28;20032;-63
2023/06/02 07:06:37;;;;;;;5.03;2.67;;;17.40;79.10;;;;;;10106007;28;20601;-63
2023/06/02 07:11:28;;;;;;;6.85;3.30;;;17.30;79.30;;;;;;10107474;28;20662;-61
2023/06/02 07:16:21;;;;;;;5.97;2.90;;;17.20;79.30;;;;;;10108138;28;20048;-62
2023/06/02 07:21:11;;;;;;;7.25;3.20;;;17.20;79.70;;;;;;10066167;28;20029;-64
2023/06/02 07:26:02;;;;;;;4.75;3.42;;;17.20;79.70;;;;;;10089272;28;20013;-62
2023/06/02 07:30:53;;;;;;;3.95;3.30;;;17.50;78.90;;;;;;10091669;28;20522;-61
2023/06/02 07:35:44;;;;;;;5.97;3.05;;;17.60;79.40;;;;;;10104890;28;20035;-68
2023/06/02 07:40:34;;;;;;;5.10;3.00;;;17.70;79.40;;;;;;10104791;28;20033;-62
2023/06/02 07:45:26;;;;;;;4.63;3.03;;;17.70;78.60;;;;;;10104093;28;20107;-65
2023/06/02 07:50:18;;;;;;;8.15;3.67;;;17.80;78.60;;;;;;10089590;28;20030;-67
2023/06/02 07:55:09;;;;;;;4.32;2.97;;;17.90;78.60;;;;;;10082464;28;20033;-60
2023/06/02 08:00:15;;;;;;;5.70;3.47;;;18.00;78.50;;;;;;10093193;28;20040;-67
2023/06/02 08:05:07;;;;;;;7.13;2.70;;;18.10;78.60;;;;;;10089790;28;20029;-68
2023/06/02 08:09:58;;;;;;;4.70;3.30;;;18.10;78.40;;;;;;10100013;28;20560;-62
2023/06/02 20:53:16;;;;;;;7.93;2.25;;;21.60;58.30;;;;;;10097899;28;20134;-60
2023/06/02 20:58:07;;;;;;;6.00;2.33;;;21.40;58.30;;;;;;10091211;28;20037;-64
2023/06/02 21:02:58;;;;;;;5.40;2.55;;;21.50;58.30;;;;;;10082882;28;20025;-63
2023/06/02 21:07:49;;;;;;;3.60;2.30;;;21.30;58.40;;;;;;10100955;28;20090;-64
2023/06/02 21:12:39;;;;;;;5.93;3.10;;;21.30;58.70;;;;;;10091956;28;20017;-65
2023/06/02 21:17:30;;;;;;;4.20;3.30;;;21.00;59.10;;;;;;10100240;28;20342;-66
2023/06/02 21:22:21;;;;;;;5.15;2.70;;;21.00;59.10;;;;;;10076283;28;20075;-67
2023/06/02 21:27:12;;;;;;;4.45;2.60;;;20.90;59.40;;;;;;10061557;28;20399;-66
2023/06/02 21:32:03;;;;;;;6.97;2.58;;;20.90;59.30;;;;;;10098898;28;20025;-67
2023/06/02 21:36:53;;;;;;;7.13;1.98;;;20.80;59.40;;;;;;10089348;28;20026;-60
2023/06/02 21:41:47;;;;;;;6.53;2.28;;;20.80;59.40;;;;;;10063701;28;20512;-60
2023/06/02 21:46:38;;;;;;;5.05;2.13;;;20.60;59.90;;;;;;10080955;28;20248;-61
2023/06/02 21:51:28;;;;;;;5.65;2.35;;;20.50;60.10;;;;;;10098426;28;20287;-63
2023/06/02 21:56:19;;;;;;;4.00;2.20;;;20.50;60.20;;;;;;10072698;28;20029;-61
2023/06/02 22:01:10;;;;;;;5.00;2.90;;;20.50;60.10;;;;;;10098899;28;20094;-63
2023/06/02 22:06:01;;;;;;;4.85;2.65;;;20.50;60.70;;;;;;10066857;28;20487;-61
2023/06/02 22:10:54;;;;;;;3.05;2.17;;;20.60;60.10;;;;;;10097716;28;20029;-60
2023/06/02 22:15:44;;;;;;;4.13;2.55;;;20.50;60.00;;;;;;10099876;28;20126;-62
2023/06/02 22:20:35;;;;;;;4.30;2.45;;;20.40;60.80;;;;;;10062313;28;20079;-68
2023/06/02 22:25:26;;;;;;;4.78;2.33;;;20.30;60.40;;;;;;10076450;28;20079;-61
2023/06/02 22:30:17;;;;;;;2.72;2.05;;;20.30;60.40;;;;;;10098272;28;20013;-60
2023/06/02 22:35:08;;;;;;;7.00;3.05;;;20.20;60.40;;;;;;10098364;28;20125;-61
2023/06/02 22:39:59;;;;;;;5.32;2.30;;;20.10;60.60;;;;;;10097513;28;20052;-61
2023/06/02 22:44:50;;;;;;;4.55;2.72;;;20.10;60.60;;;;;;10097595;28;20027;-62
2023/06/02 22:49:40;;;;;;;3.53;2.33;;;20.10;61.20;;;;;;10071618;28;20252;-63
2023/06/02 22:54:31;;;;;;;4.28;2.40;;;19.90;60.90;;;;;;10091393;28;20025;-62
2023/06/02 22:59:21;;;;;;;4.85;3.03;;;19.80;61.20;;;;;;10105039;28;20096;-63
2023/06/02 23:04:12;;;;;;;4.95;2.70;;;19.80;61.20;;;;;;10104895;28;20037;-65
2023/06/02 23:09:03;;;;;;;2.70;2.42;;;19.60;61.60;;;;;;10119771;28;20120;-68
2023/06/02 23:13:53;;;;;;;4.97;2.50;;;19.70;61.40;;;;;;10087459;28;20032;-68
2023/06/02 23:18:44;;;;;;;6.72;2.30;;;19.70;61.60;;;;;;10105366;28;20112;-67
2023/06/02 23:23:35;;;;;;;5.22;2.70;;;19.40;62.20;;;;;;10104905;28;20017;-63
2023/06/02 23:28:25;;;;;;;6.00;2.58;;;19.30;62.30;;;;;;10086388;28;20032;-69
2023/06/02 23:33:16;;;;;;;5.50;2.83;;;19.30;62.40;;;;;;10104521;28;20036;-77
2023/06/02 23:38:07;;;;;;;6.63;2.35;;;19.30;62.70;;;;;;10103899;28;20048;-64
2023/06/02 23:43:05;;;;;;;6.88;2.38;;;19.30;62.80;;;;;;10103998;28;20344;-67
2023/06/02 23:47:56;;;;;;;10.40;2.80;;;19.40;62.80;;;;;;10103560;28;20047;-67
2023/06/02 23:52:47;;;;;;;8.27;2.80;;;19.50;62.60;;;;;;10069299;28;20526;-67
2023/06/02 23:57:38;;;;;;;4.53;2.80;;;19.30;62.90;;;;;;10100957;28;20029;-71
